Velma, Oklahoma
Current Conditions -  °F | °C
As of 1:55 PM on Sunday 23 Nov 2014 (Local Time) from KDUC Reporting Station
Clear Clear  
Wind Chill: 64°   Ceiling: Unl
Heat Index: 64°   Visibility: 10mi
Dew Point: 45°   Wind: 20mph
Humidity: 49%   Direction: 300°WNW
Pressure: 29.37"   Gusts: 25mph
Location:  34.46°N, 97.67°W
Report Text: KDUC 231955Z AUTO 30017G22KT 10SM CLR 18/07 A2937 RMK AO2
Loading
Personal Weather Stations






























Interactive Weather Map New forecast layout! Learn more

10-Day Weather Forecast

Advertisements
Track Severe Weather on mobile